createdAt,value
2023-03-24T00:00:24.843Z,20.30
2023-03-24T00:03:02.579Z,19.92
2023-03-24T00:05:50.848Z,23.73
2023-03-24T00:08:30.866Z,19.10
2023-03-24T00:11:18.865Z,18.70
2023-03-24T00:13:58.834Z,21.75
2023-03-24T00:16:48.865Z,20.30
2023-03-24T00:19:30.852Z,20.75
2023-03-24T00:22:27.852Z,18.50
2023-03-24T00:25:17.868Z,19.00
2023-03-24T00:27:58.866Z,20.25
2023-03-24T00:30:48.959Z,20.98
2023-03-24T00:33:28.915Z,19.30
2023-03-24T00:36:20.937Z,19.58
2023-03-24T00:39:05.715Z,19.23
2023-03-24T00:42:02.883Z,19.73
2023-03-24T00:44:51.899Z,20.33
2023-03-24T00:47:32.837Z,22.58
2023-03-24T00:50:23.882Z,19.77
2023-03-24T00:53:04.894Z,20.67
2023-03-24T00:55:55.892Z,21.23
2023-03-24T00:58:40.868Z,19.85
2023-03-24T01:01:28.855Z,20.58
2023-03-24T01:04:03.026Z,20.85
2023-03-24T01:06:51.873Z,21.20
2023-03-24T01:09:25.069Z,19.67
2023-03-24T01:12:11.891Z,17.50
2023-03-24T01:14:44.980Z,19.90
2023-03-24T01:17:31.907Z,18.38
2023-03-24T01:20:14.881Z,17.30
2023-03-24T01:23:08.891Z,17.95
2023-03-24T01:25:57.926Z,18.48
2023-03-24T01:28:32.208Z,19.13
2023-03-24T01:31:18.892Z,18.40
2023-03-24T01:33:51.974Z,18.45
2023-03-24T01:36:38.901Z,18.23
2023-03-24T01:39:15.550Z,18.83
2023-03-24T01:42:02.885Z,17.85
2023-03-24T01:44:36.030Z,16.65
2023-03-24T01:47:23.968Z,18.70
2023-03-24T01:50:03.178Z,17.92
2023-03-24T01:52:49.886Z,16.42
2023-03-24T01:55:25.017Z,17.58
2023-03-24T01:58:14.030Z,17.85
2023-03-24T02:00:48.062Z,16.63
2023-03-24T02:03:40.939Z,16.15
2023-03-24T02:06:21.946Z,17.90
2023-03-24T02:09:16.902Z,18.08
2023-03-24T02:12:03.907Z,17.70
2023-03-24T02:14:37.033Z,17.92
2023-03-24T02:17:27.940Z,17.90
2023-03-24T02:20:17.169Z,17.98
2023-03-24T02:23:23.954Z,17.42
2023-03-24T02:26:36.030Z,17.73
2023-03-24T02:29:25.918Z,18.35
2023-03-24T02:32:08.908Z,18.00
2023-03-24T02:35:31.914Z,17.35
2023-03-24T02:38:47.923Z,15.98
2023-03-24T02:42:03.041Z,16.60
2023-03-24T02:45:13.947Z,17.42
2023-03-24T02:48:25.913Z,16.67
2023-03-24T02:51:41.146Z,18.15
2023-03-24T02:54:49.060Z,16.10
2023-03-24T02:57:45.904Z,16.15
2023-03-24T03:00:49.992Z,17.25
2023-03-24T03:03:45.954Z,17.65
2023-03-24T03:06:22.238Z,19.42
2023-03-24T03:09:14.985Z,16.52
2023-03-24T03:11:59.942Z,19.60
2023-03-24T03:15:01.942Z,18.15
2023-03-24T03:18:01.957Z,17.10
2023-03-24T03:20:56.962Z,17.58
2023-03-24T03:23:36.516Z,17.25
2023-03-24T03:26:29.959Z,18.08
2023-03-24T03:29:16.046Z,19.55
2023-03-24T03:32:14.012Z,18.73
2023-03-24T03:34:57.145Z,17.95
2023-03-24T03:38:14.945Z,17.85
2023-03-24T03:40:56.128Z,18.25
2023-03-24T03:43:42.965Z,18.48
2023-03-24T03:46:16.597Z,20.83
2023-03-24T03:49:02.953Z,17.20
2023-03-24T03:51:43.122Z,18.40
2023-03-24T03:54:32.946Z,20.00
2023-03-24T03:57:07.131Z,19.10
2023-03-24T03:59:54.096Z,18.52
2023-03-24T04:02:39.183Z,18.17
2023-03-24T04:05:43.153Z,17.58
2023-03-24T04:08:50.950Z,17.83
2023-03-24T04:11:53.953Z,17.25
2023-03-24T04:14:52.951Z,19.70
2023-03-24T04:18:05.103Z,19.48
2023-03-24T04:21:04.123Z,17.98
2023-03-24T04:24:33.993Z,16.83
2023-03-24T04:27:52.954Z,17.50
2023-03-24T04:30:48.975Z,18.63
2023-03-24T04:33:39.182Z,17.83
2023-03-24T04:36:38.975Z,18.83
2023-03-24T04:39:12.862Z,19.38
2023-03-24T04:42:03.961Z,19.60
2023-03-24T04:44:47.971Z,23.98
2023-03-24T04:47:46.008Z,18.58
2023-03-24T04:50:44.969Z,19.73
2023-03-24T04:53:18.208Z,18.90
2023-03-24T04:56:36.104Z,19.15
2023-03-24T04:59:09.243Z,18.77
2023-03-24T05:01:58.967Z,18.10
2023-03-24T05:04:43.002Z,18.40
2023-03-24T05:07:36.961Z,18.10
2023-03-24T05:10:24.997Z,16.67
2023-03-24T05:13:04.979Z,18.38
2023-03-24T05:15:59.001Z,18.40
2023-03-24T05:18:45.988Z,17.55
2023-03-24T05:21:26.962Z,17.55
2023-03-24T05:24:20.978Z,17.45
2023-03-24T05:27:07.989Z,17.35
2023-03-24T05:29:41.100Z,17.05
2023-03-24T05:32:28.005Z,16.38
2023-03-24T05:35:07.996Z,17.05
2023-03-24T05:38:02.011Z,16.85
2023-03-24T05:40:48.985Z,21.50
2023-03-24T05:43:22.084Z,18.60
2023-03-24T05:46:09.061Z,17.35
2023-03-24T05:48:49.008Z,16.63
2023-03-24T05:51:42.997Z,18.50
2023-03-24T05:54:36.986Z,17.65
2023-03-24T05:57:24.986Z,20.17
2023-03-24T05:59:58.207Z,21.08
2023-03-24T06:02:46.116Z,18.88
2023-03-24T06:05:20.447Z,21.08
2023-03-24T06:08:08.007Z,19.33
2023-03-24T06:10:41.158Z,21.40
2023-03-24T06:13:28.002Z,20.15
2023-03-24T06:16:03.610Z,21.67
2023-03-24T06:18:59.026Z,22.50
2023-03-24T06:21:39.016Z,20.80
2023-03-24T06:24:26.021Z,26.50
2023-03-24T06:27:10.010Z,66.47
2023-03-24T06:29:57.011Z,46.33
2023-03-24T06:32:31.186Z,24.42
2023-03-24T06:35:18.063Z,20.52
2023-03-24T06:37:58.014Z,20.17
2023-03-24T06:40:52.039Z,19.20
2023-03-24T06:43:46.013Z,18.85
2023-03-24T06:46:33.060Z,19.95
2023-03-24T06:49:13.020Z,19.92
2023-03-24T06:52:01.012Z,19.05
2023-03-24T06:54:34.152Z,27.05
2023-03-24T06:57:21.042Z,43.47
2023-03-24T07:00:01.045Z,32.88
2023-03-24T07:02:55.076Z,44.10
2023-03-24T07:05:50.027Z,37.25
2023-03-24T07:08:38.007Z,23.13
2023-03-24T07:11:32.029Z,24.77
2023-03-24T07:14:19.057Z,26.58
2023-03-24T07:16:59.060Z,22.13
2023-03-24T07:19:53.077Z,21.90
2023-03-24T07:22:47.046Z,24.65
2023-03-24T07:25:41.034Z,24.42
2023-03-24T07:28:35.049Z,23.17
2023-03-24T07:31:22.081Z,25.55
2023-03-24T07:34:02.193Z,28.30
2023-03-24T07:36:49.035Z,34.08
2023-03-24T07:39:22.213Z,32.72
2023-03-24T07:42:10.998Z,30.70
2023-03-24T07:44:52.046Z,29.23
2023-03-24T07:47:46.077Z,27.88
2023-03-24T07:50:40.044Z,36.03
2023-03-24T07:53:34.157Z,70.53
2023-03-24T07:56:22.064Z,45.00
2023-03-24T07:58:55.235Z,37.72
2023-03-24T08:01:44.149Z,39.22
2023-03-24T08:04:20.272Z,26.77
2023-03-24T08:07:07.075Z,31.58
2023-03-24T08:09:40.148Z,25.98
2023-03-24T08:12:27.072Z,22.50
2023-03-24T08:15:07.062Z,24.83
2023-03-24T08:18:03.089Z,20.85
2023-03-24T08:20:57.112Z,24.27
2023-03-24T08:23:51.056Z,23.00
2023-03-24T08:26:42.093Z,27.42
2023-03-24T08:29:25.077Z,25.27
2023-03-24T08:32:19.074Z,21.83
2023-03-24T08:35:06.101Z,22.70
2023-03-24T08:37:39.190Z,25.27
2023-03-24T08:40:30.077Z,25.73
2023-03-24T08:43:08.557Z,22.70
2023-03-24T08:45:55.109Z,20.08
2023-03-24T08:48:35.082Z,19.00
2023-03-24T08:51:31.148Z,22.23
2023-03-24T08:54:19.103Z,18.92
2023-03-24T08:56:52.265Z,19.60
2023-03-24T08:59:39.123Z,20.90
2023-03-24T09:02:12.216Z,20.52
2023-03-24T09:05:01.127Z,20.33
2023-03-24T09:07:34.238Z,19.58
2023-03-24T09:10:22.122Z,19.65
2023-03-24T09:13:02.084Z,18.83
2023-03-24T09:16:01.075Z,19.75
2023-03-24T09:18:55.101Z,20.25
2023-03-24T09:21:49.073Z,19.25
2023-03-24T09:24:43.115Z,19.95
2023-03-24T09:27:32.934Z,19.65
2023-03-24T09:30:13.093Z,19.05
2023-03-24T09:33:07.142Z,20.45
2023-03-24T09:36:00.562Z,19.48
2023-03-24T09:38:42.095Z,18.30
2023-03-24T09:41:44.089Z,17.67
2023-03-24T09:44:55.121Z,18.25
2023-03-24T09:47:52.133Z,20.73
2023-03-24T09:51:12.239Z,20.85
2023-03-24T09:54:06.109Z,17.30
2023-03-24T09:56:54.138Z,18.52
2023-03-24T09:59:45.152Z,19.77
2023-03-24T10:02:37.172Z,17.13
2023-03-24T10:05:19.249Z,17.73
2023-03-24T10:08:29.447Z,18.02
2023-03-24T10:11:31.115Z,18.48
2023-03-24T10:14:42.124Z,18.67
2023-03-24T10:17:59.283Z,17.83
2023-03-24T10:20:54.141Z,17.13
2023-03-24T10:23:43.290Z,17.15
2023-03-24T10:26:44.250Z,18.17
2023-03-24T10:29:36.404Z,17.15
2023-03-24T10:32:27.160Z,17.30
2023-03-24T10:35:16.168Z,18.98
2023-03-24T10:38:08.125Z,19.85
2023-03-24T10:40:48.124Z,16.85
2023-03-24T10:43:43.174Z,21.17
2023-03-24T10:46:35.190Z,17.80
2023-03-24T10:49:42.149Z,17.38
2023-03-24T10:52:38.089Z,17.70
2023-03-24T10:55:28.169Z,17.48
2023-03-24T10:58:04.271Z,20.15
2023-03-24T11:00:52.267Z,18.88
2023-03-24T11:03:36.275Z,18.30
2023-03-24T11:06:26.140Z,18.67
2023-03-24T11:09:33.163Z,17.90
2023-03-24T11:12:41.151Z,19.70
2023-03-24T11:15:37.244Z,18.25
2023-03-24T11:18:19.543Z,17.77
2023-03-24T11:21:11.153Z,16.65
2023-03-24T11:23:45.706Z,18.10
2023-03-24T11:26:42.224Z,17.30
2023-03-24T11:29:28.074Z,17.27
2023-03-24T11:32:36.264Z,16.80
2023-03-24T11:35:32.155Z,17.55
2023-03-24T11:38:41.171Z,17.25
2023-03-24T11:41:28.166Z,17.13
2023-03-24T11:44:37.214Z,16.48
2023-03-24T11:47:31.250Z,16.40
2023-03-24T11:50:21.253Z,17.15
2023-03-24T11:53:30.230Z,19.02
2023-03-24T11:56:16.679Z,18.63
2023-03-24T11:59:30.261Z,17.58
2023-03-24T12:02:22.292Z,20.35
2023-03-24T12:05:31.199Z,17.48
2023-03-24T12:08:40.248Z,18.60
2023-03-24T12:11:33.224Z,16.35
2023-03-24T12:14:16.233Z,17.38
2023-03-24T12:17:21.236Z,19.02
2023-03-24T12:20:16.374Z,17.70
2023-03-24T12:23:47.246Z,18.27
2023-03-24T12:26:45.255Z,17.90
2023-03-24T12:30:09.197Z,17.63
2023-03-24T12:33:45.285Z,17.83
2023-03-24T12:36:31.885Z,17.30
2023-03-24T12:39:23.308Z,15.82
2023-03-24T12:42:12.711Z,16.40
2023-03-24T12:45:14.240Z,16.75
2023-03-24T12:48:15.517Z,15.60
2023-03-24T12:51:20.229Z,15.77
2023-03-24T12:54:03.861Z,16.08
2023-03-24T12:57:06.324Z,17.50
2023-03-24T13:00:19.334Z,16.38
2023-03-24T13:03:38.230Z,15.68
2023-03-24T13:06:22.447Z,15.00
2023-03-24T13:09:18.237Z,15.52
2023-03-24T13:11:57.431Z,17.23
2023-03-24T13:15:14.237Z,17.90
2023-03-24T13:18:07.066Z,22.45
2023-03-24T13:21:18.246Z,18.15
2023-03-24T13:24:15.580Z,18.05
2023-03-24T13:27:13.246Z,18.83
2023-03-24T13:30:02.396Z,23.30
2023-03-24T13:32:58.306Z,15.48
2023-03-24T13:35:48.233Z,18.20
2023-03-24T13:38:45.279Z,17.35
2023-03-24T13:41:31.270Z,18.77
2023-03-24T13:44:32.239Z,17.30
2023-03-24T13:47:07.427Z,17.45
2023-03-24T13:50:20.476Z,16.83
2023-03-24T13:53:10.974Z,16.83
2023-03-24T13:56:02.296Z,19.80
2023-03-24T13:59:12.385Z,21.15
2023-03-24T14:02:24.531Z,22.63
2023-03-24T14:05:34.417Z,26.70
2023-03-24T14:08:41.269Z,19.88
2023-03-24T14:11:49.306Z,28.00
2023-03-24T14:14:46.149Z,20.88
2023-03-24T14:17:33.454Z,23.67
2023-03-24T14:20:10.668Z,21.20
2023-03-24T14:22:58.266Z,21.98
2023-03-24T14:25:37.353Z,28.27
2023-03-24T14:28:34.258Z,25.33
2023-03-24T14:31:42.391Z,32.40
2023-03-24T14:34:32.267Z,26.70
2023-03-24T14:37:09.530Z,27.02
2023-03-24T14:39:57.381Z,27.92
2023-03-24T14:42:46.338Z,25.77
2023-03-24T14:45:33.508Z,30.52
2023-03-24T14:48:16.266Z,34.13
2023-03-24T14:51:17.319Z,25.05
2023-03-24T14:54:05.351Z,20.17
2023-03-24T14:56:47.154Z,22.42
2023-03-24T14:59:38.356Z,29.20
2023-03-24T15:02:30.450Z,26.20
2023-03-24T15:05:27.395Z,23.92
2023-03-24T15:08:21.347Z,22.45
2023-03-24T15:11:12.327Z,23.17
2023-03-24T15:13:59.397Z,29.02
2023-03-24T15:16:46.339Z,24.98
2023-03-24T15:19:29.411Z,21.20
2023-03-24T15:22:20.398Z,20.67
2023-03-24T15:25:03.317Z,21.13
2023-03-24T15:28:04.334Z,21.65
2023-03-24T15:30:51.546Z,21.08
2023-03-24T15:33:26.180Z,20.55
2023-03-24T15:36:21.317Z,20.77
2023-03-24T15:39:00.196Z,22.63
2023-03-24T15:41:47.383Z,22.55
2023-03-24T15:44:26.472Z,19.98
2023-03-24T15:47:29.716Z,19.23
2023-03-24T15:50:07.610Z,21.77
2023-03-24T15:53:07.910Z,21.10
2023-03-24T15:55:43.461Z,22.73
2023-03-24T15:58:35.360Z,20.42
2023-03-24T16:01:09.742Z,21.85
2023-03-24T16:03:57.475Z,22.05
2023-03-24T16:06:44.377Z,20.25
2023-03-24T16:09:38.401Z,23.35
2023-03-24T16:12:25.358Z,21.90
2023-03-24T16:14:58.618Z,22.70
2023-03-24T16:17:45.430Z,22.02
2023-03-24T16:20:28.433Z,21.45
2023-03-24T16:23:20.154Z,22.15
2023-03-24T16:25:53.440Z,20.30
2023-03-24T16:28:42.367Z,21.35
2023-03-24T16:31:25.558Z,20.98
2023-03-24T16:34:14.133Z,18.33
2023-03-24T16:36:48.451Z,21.33
2023-03-24T16:39:37.398Z,19.30
2023-03-24T16:42:10.654Z,20.70
2023-03-24T16:44:58.342Z,20.10
2023-03-24T16:47:31.620Z,21.25
2023-03-24T16:50:47.559Z,25.45
2023-03-24T16:53:30.389Z,21.90
2023-03-24T16:56:28.516Z,30.23
2023-03-24T16:59:15.409Z,27.65
2023-03-24T17:01:58.404Z,24.38
2023-03-24T17:04:53.399Z,26.02
2023-03-24T17:07:47.653Z,29.27
2023-03-24T17:10:42.383Z,24.48
2023-03-24T17:13:32.390Z,20.77
2023-03-24T17:16:05.496Z,25.10
2023-03-24T17:18:52.395Z,29.23
2023-03-24T17:21:26.458Z,30.88
2023-03-24T17:24:20.383Z,29.30
2023-03-24T17:27:14.386Z,29.90
2023-03-24T17:30:01.377Z,26.13
2023-03-24T17:32:36.579Z,35.50
2023-03-24T17:35:26.407Z,30.48
2023-03-24T17:37:59.496Z,33.28
2023-03-24T17:40:48.829Z,28.00
2023-03-24T17:43:22.475Z,30.13
2023-03-24T17:46:10.448Z,31.98
2023-03-24T17:48:50.384Z,26.15
2023-03-24T17:51:44.386Z,35.17
2023-03-24T17:54:32.390Z,34.97
2023-03-24T17:57:05.820Z,31.38
2023-03-24T17:59:53.156Z,32.05
2023-03-24T18:02:33.404Z,34.03
2023-03-24T18:05:27.398Z,31.65
2023-03-24T18:08:14.386Z,37.28
2023-03-24T18:10:47.857Z,32.03
2023-03-24T18:13:35.369Z,35.35
2023-03-24T18:16:19.942Z,32.20
2023-03-24T18:19:08.428Z,37.33
2023-03-24T18:21:48.430Z,31.65
2023-03-24T18:24:42.437Z,26.13
2023-03-24T18:27:38.467Z,29.67
2023-03-24T18:30:25.379Z,31.20
2023-03-24T18:33:01.467Z,27.58
2023-03-24T18:35:48.421Z,29.65
2023-03-24T18:38:22.504Z,34.58
2023-03-24T18:41:14.451Z,42.20
2023-03-24T18:43:48.312Z,52.15
2023-03-24T18:46:35.441Z,54.33
2023-03-24T18:49:08.567Z,51.58
2023-03-24T18:51:49.393Z,51.72
2023-03-24T18:54:29.403Z,58.17
2023-03-24T18:57:09.427Z,52.40
2023-03-24T18:59:56.463Z,48.45
2023-03-24T19:02:36.481Z,54.78
2023-03-24T19:05:30.430Z,55.42
2023-03-24T19:08:21.401Z,48.17
2023-03-24T19:10:55.584Z,47.40
2023-03-24T19:13:42.440Z,44.88
2023-03-24T19:16:18.798Z,48.47
2023-03-24T19:19:08.769Z,42.53
2023-03-24T19:21:42.868Z,44.28
2023-03-24T19:24:36.437Z,46.35
2023-03-24T19:27:30.430Z,33.90
2023-03-24T19:30:18.453Z,30.70
2023-03-24T19:32:52.833Z,36.45
2023-03-24T19:35:40.479Z,32.55
2023-03-24T19:38:14.206Z,34.15
2023-03-24T19:41:00.442Z,33.85
2023-03-24T19:43:34.683Z,37.70
2023-03-24T19:46:23.453Z,33.05
2023-03-24T19:48:56.826Z,29.90
2023-03-24T19:51:43.420Z,34.65
2023-03-24T19:54:23.412Z,37.78
2023-03-24T19:57:17.443Z,34.97
2023-03-24T20:00:12.458Z,36.97
2023-03-24T20:02:59.540Z,36.55
2023-03-24T20:05:39.440Z,28.73
2023-03-24T20:08:27.437Z,29.98
2023-03-24T20:11:07.434Z,31.77
2023-03-24T20:14:01.431Z,30.00
2023-03-24T20:16:48.454Z,34.65
2023-03-24T20:19:21.548Z,47.42
2023-03-24T20:22:08.500Z,41.53
2023-03-24T20:24:42.760Z,40.60
2023-03-24T20:27:29.462Z,48.17
2023-03-24T20:30:03.414Z,49.03
2023-03-24T20:32:50.501Z,38.47
2023-03-24T20:35:23.559Z,39.28
2023-03-24T20:38:10.441Z,37.75
2023-03-24T20:40:43.578Z,35.90
2023-03-24T20:43:30.468Z,36.45
2023-03-24T20:46:04.684Z,29.17
2023-03-24T20:48:51.481Z,33.63
2023-03-24T20:51:24.648Z,28.95
2023-03-24T20:54:12.473Z,29.13
2023-03-24T20:56:52.545Z,31.50
2023-03-24T20:59:39.510Z,39.35
2023-03-24T21:02:13.676Z,44.33
2023-03-24T21:05:00.478Z,48.05
2023-03-24T21:07:34.413Z,46.10
2023-03-24T21:10:21.467Z,39.83
2023-03-24T21:13:01.491Z,32.80
2023-03-24T21:15:50.633Z,36.90
2023-03-24T21:18:31.436Z,40.85
2023-03-24T21:21:19.620Z,30.77
2023-03-24T21:24:02.468Z,30.08
2023-03-24T21:26:57.483Z,33.72
2023-03-24T21:29:51.494Z,31.25
2023-03-24T21:32:45.483Z,33.95
2023-03-24T21:35:39.472Z,64.53
2023-03-24T21:38:26.485Z,172.48
2023-03-24T21:41:06.600Z,150.18
2023-03-24T21:43:57.480Z,110.28
2023-03-24T21:46:32.122Z,111.63
2023-03-24T21:49:19.492Z,89.32
2023-03-24T21:51:55.123Z,64.80
2023-03-24T21:54:41.485Z,67.65
2023-03-24T21:57:21.492Z,58.42
2023-03-24T22:00:20.496Z,60.58
2023-03-24T22:03:08.565Z,52.70
2023-03-24T22:05:45.991Z,93.10
2023-03-24T22:08:37.483Z,104.95
2023-03-24T22:11:18.565Z,94.47
2023-03-24T22:14:05.508Z,89.57
2023-03-24T22:16:45.555Z,78.38
2023-03-24T22:19:39.512Z,62.50
2023-03-24T22:22:33.507Z,61.22
2023-03-24T22:25:30.519Z,51.38
2023-03-24T22:28:17.505Z,45.90
2023-03-24T22:30:57.505Z,44.40
2023-03-24T22:33:44.540Z,40.70
2023-03-24T22:36:18.683Z,37.47
2023-03-24T22:39:05.503Z,37.72
2023-03-24T22:41:45.505Z,39.90
2023-03-24T22:44:32.537Z,40.95
2023-03-24T22:47:13.505Z,42.42
2023-03-24T22:50:00.512Z,44.13
2023-03-24T22:52:40.511Z,52.20
2023-03-24T22:55:34.498Z,50.72
2023-03-24T22:58:21.514Z,79.60
2023-03-24T23:00:56.606Z,120.43
2023-03-24T23:03:43.513Z,76.65
2023-03-24T23:06:17.664Z,57.65
2023-03-24T23:09:06.529Z,58.55
2023-03-24T23:11:39.621Z,46.65
2023-03-24T23:14:26.525Z,39.47
2023-03-24T23:16:59.758Z,42.63
2023-03-24T23:19:46.584Z,44.35
2023-03-24T23:22:19.870Z,45.35
2023-03-24T23:25:13.524Z,42.00
2023-03-24T23:28:07.511Z,42.97
2023-03-24T23:30:54.534Z,36.90
2023-03-24T23:33:27.721Z,35.85
2023-03-24T23:36:17.116Z,35.25
2023-03-24T23:38:54.581Z,30.27
2023-03-24T23:41:41.580Z,36.00
2023-03-24T23:44:19.568Z,41.63
2023-03-24T23:47:06.551Z,40.13
2023-03-24T23:49:46.550Z,40.47
2023-03-24T23:52:33.558Z,32.80
2023-03-24T23:55:06.673Z,31.80
2023-03-24T23:57:55.548Z,31.08
